sensor_id;sensor_type;location;lat;lon;timestamp;temperature;humidity
68128;SHT30;54931;52.098;21.006;2024-03-02T00:00:21;7.18;79.75
68128;SHT30;54931;52.098;21.006;2024-03-02T00:03:11;7.17;79.53
68128;SHT30;54931;52.098;21.006;2024-03-02T00:05:41;7.15;79.84
68128;SHT30;54931;52.098;21.006;2024-03-02T00:08:09;7.13;80.04
68128;SHT30;54931;52.098;21.006;2024-03-02T00:10:37;7.13;80.01
68128;SHT30;54931;52.098;21.006;2024-03-02T00:13:07;7.11;80.06
68128;SHT30;54931;52.098;21.006;2024-03-02T00:18:12;7.09;80.10
68128;SHT30;54931;52.098;21.006;2024-03-02T00:21:02;7.07;80.19
68128;SHT30;54931;52.098;21.006;2024-03-02T00:23:33;7.07;80.20
68128;SHT30;54931;52.098;21.006;2024-03-02T00:26:02;7.06;80.39
68128;SHT30;54931;52.098;21.006;2024-03-02T00:28:34;7.05;80.34
68128;SHT30;54931;52.098;21.006;2024-03-02T00:33:35;7.04;80.32
68128;SHT30;54931;52.098;21.006;2024-03-02T00:36:07;7.03;80.33
68128;SHT30;54931;52.098;21.006;2024-03-02T00:38:42;7.01;80.32
68128;SHT30;54931;52.098;21.006;2024-03-02T00:41:30;6.99;80.55
68128;SHT30;54931;52.098;21.006;2024-03-02T00:44:02;6.99;80.53
68128;SHT30;54931;52.098;21.006;2024-03-02T00:46:33;6.99;80.47
68128;SHT30;54931;52.098;21.006;2024-03-02T00:49:04;6.99;80.49
68128;SHT30;54931;52.098;21.006;2024-03-02T00:51:34;6.97;80.54
68128;SHT30;54931;52.098;21.006;2024-03-02T00:54:07;6.96;80.52
68128;SHT30;54931;52.098;21.006;2024-03-02T00:56:37;6.93;80.59
68128;SHT30;54931;52.098;21.006;2024-03-02T00:59:06;6.92;80.71
68128;SHT30;54931;52.098;21.006;2024-03-02T01:01:33;6.90;80.64
68128;SHT30;54931;52.098;21.006;2024-03-02T01:04:02;6.87;80.76
68128;SHT30;54931;52.098;21.006;2024-03-02T01:06:30;6.85;80.75
68128;SHT30;54931;52.098;21.006;2024-03-02T01:08:58;6.81;80.71
68128;SHT30;54931;52.098;21.006;2024-03-02T01:11:26;6.78;80.98
68128;SHT30;54931;52.098;21.006;2024-03-02T01:13:54;6.76;81.02
68128;SHT30;54931;52.098;21.006;2024-03-02T01:16:22;6.73;81.16
68128;SHT30;54931;52.098;21.006;2024-03-02T01:18:50;6.72;81.26
68128;SHT30;54931;52.098;21.006;2024-03-02T01:21:18;6.70;81.28
68128;SHT30;54931;52.098;21.006;2024-03-02T01:23:46;6.72;81.27
68128;SHT30;54931;52.098;21.006;2024-03-02T01:26:13;6.68;81.20
68128;SHT30;54931;52.098;21.006;2024-03-02T01:28:41;6.67;81.19
68128;SHT30;54931;52.098;21.006;2024-03-02T01:31:09;6.65;81.39
68128;SHT30;54931;52.098;21.006;2024-03-02T01:33:37;6.64;81.40
68128;SHT30;54931;52.098;21.006;2024-03-02T01:36:04;6.63;81.61
68128;SHT30;54931;52.098;21.006;2024-03-02T01:38:35;6.64;81.43
68128;SHT30;54931;52.098;21.006;2024-03-02T01:41:04;6.64;81.50
68128;SHT30;54931;52.098;21.006;2024-03-02T01:43:31;6.65;81.37
68128;SHT30;54931;52.098;21.006;2024-03-02T01:45:59;6.65;81.41
68128;SHT30;54931;52.098;21.006;2024-03-02T01:48:27;6.65;81.34
68128;SHT30;54931;52.098;21.006;2024-03-02T01:50:55;6.64;81.53
68128;SHT30;54931;52.098;21.006;2024-03-02T01:53:24;6.64;81.48
68128;SHT30;54931;52.098;21.006;2024-03-02T01:55:52;6.64;81.47
68128;SHT30;54931;52.098;21.006;2024-03-02T01:58:20;6.63;81.66
68128;SHT30;54931;52.098;21.006;2024-03-02T02:00:47;6.63;81.52
68128;SHT30;54931;52.098;21.006;2024-03-02T02:03:16;6.61;81.60
68128;SHT30;54931;52.098;21.006;2024-03-02T02:05:44;6.59;81.67
68128;SHT30;54931;52.098;21.006;2024-03-02T02:08:14;6.58;81.80
68128;SHT30;54931;52.098;21.006;2024-03-02T02:10:41;6.58;81.84
68128;SHT30;54931;52.098;21.006;2024-03-02T02:13:09;6.56;81.86
68128;SHT30;54931;52.098;21.006;2024-03-02T02:15:37;6.54;81.78
68128;SHT30;54931;52.098;21.006;2024-03-02T02:18:05;6.51;81.92
68128;SHT30;54931;52.098;21.006;2024-03-02T02:20:33;6.50;81.83
68128;SHT30;54931;52.098;21.006;2024-03-02T02:23:03;6.47;81.77
68128;SHT30;54931;52.098;21.006;2024-03-02T02:25:36;6.43;81.82
68128;SHT30;54931;52.098;21.006;2024-03-02T02:28:04;6.40;82.10
68128;SHT30;54931;52.098;21.006;2024-03-02T02:30:32;6.38;82.12
68128;SHT30;54931;52.098;21.006;2024-03-02T02:33:00;6.35;82.28
68128;SHT30;54931;52.098;21.006;2024-03-02T02:35:29;6.33;82.38
68128;SHT30;54931;52.098;21.006;2024-03-02T02:37:57;6.32;82.39
68128;SHT30;54931;52.098;21.006;2024-03-02T02:40:26;6.28;82.32
68128;SHT30;54931;52.098;21.006;2024-03-02T02:42:58;6.25;82.27
68128;SHT30;54931;52.098;21.006;2024-03-02T02:45:28;6.23;82.57
68128;SHT30;54931;52.098;21.006;2024-03-02T02:47:57;6.22;82.55
68128;SHT30;54931;52.098;21.006;2024-03-02T02:50:25;6.18;82.62
68128;SHT30;54931;52.098;21.006;2024-03-02T02:52:53;6.15;82.55
68128;SHT30;54931;52.098;21.006;2024-03-02T02:55:20;6.11;82.70
68128;SHT30;54931;52.098;21.006;2024-03-02T02:57:48;6.09;83.06
68128;SHT30;54931;52.098;21.006;2024-03-02T03:00:16;6.07;83.21
68128;SHT30;54931;52.098;21.006;2024-03-02T03:02:47;6.05;83.32
68128;SHT30;54931;52.098;21.006;2024-03-02T03:05:17;6.03;83.41
68128;SHT30;54931;52.098;21.006;2024-03-02T03:07:46;6.01;83.32
68128;SHT30;54931;52.098;21.006;2024-03-02T03:10:17;5.99;83.34
68128;SHT30;54931;52.098;21.006;2024-03-02T03:12:45;5.95;83.50
68128;SHT30;54931;52.098;21.006;2024-03-02T03:15:13;5.94;83.66
68128;SHT30;54931;52.098;21.006;2024-03-02T03:17:43;5.92;83.82
68128;SHT30;54931;52.098;21.006;2024-03-02T03:20:13;5.90;83.86
68128;SHT30;54931;52.098;21.006;2024-03-02T03:22:42;5.88;83.75
68128;SHT30;54931;52.098;21.006;2024-03-02T03:25:10;5.86;83.73
68128;SHT30;54931;52.098;21.006;2024-03-02T03:27:39;5.84;83.83
68128;SHT30;54931;52.098;21.006;2024-03-02T03:30:07;5.82;83.93
68128;SHT30;54931;52.098;21.006;2024-03-02T03:32:35;5.81;83.82
68128;SHT30;54931;52.098;21.006;2024-03-02T03:35:03;5.81;84.13
68128;SHT30;54931;52.098;21.006;2024-03-02T03:37:33;5.81;84.00
68128;SHT30;54931;52.098;21.006;2024-03-02T03:40:04;5.80;84.20
68128;SHT30;54931;52.098;21.006;2024-03-02T03:42:38;5.81;83.97
68128;SHT30;54931;52.098;21.006;2024-03-02T03:45:08;5.81;84.10
68128;SHT30;54931;52.098;21.006;2024-03-02T03:47:36;5.80;84.08
68128;SHT30;54931;52.098;21.006;2024-03-02T03:50:04;5.79;83.97
68128;SHT30;54931;52.098;21.006;2024-03-02T03:52:34;5.76;83.99
68128;SHT30;54931;52.098;21.006;2024-03-02T03:55:02;5.74;84.19
68128;SHT30;54931;52.098;21.006;2024-03-02T03:57:30;5.72;84.17
68128;SHT30;54931;52.098;21.006;2024-03-02T03:59:58;5.69;84.42
68128;SHT30;54931;52.098;21.006;2024-03-02T04:02:27;5.68;84.37
68128;SHT30;54931;52.098;21.006;2024-03-02T04:04:55;5.66;84.24
68128;SHT30;54931;52.098;21.006;2024-03-02T04:07:23;5.63;84.19
68128;SHT30;54931;52.098;21.006;2024-03-02T04:09:50;5.60;84.49
68128;SHT30;54931;52.098;21.006;2024-03-02T04:12:19;5.59;84.95
68128;SHT30;54931;52.098;21.006;2024-03-02T04:15:07;5.60;84.97
68128;SHT30;54931;52.098;21.006;2024-03-02T04:17:55;5.60;84.74
68128;SHT30;54931;52.098;21.006;2024-03-02T04:20:30;5.60;84.84
68128;SHT30;54931;52.098;21.006;2024-03-02T04:22:58;5.60;84.79
68128;SHT30;54931;52.098;21.006;2024-03-02T04:25:25;5.59;84.83
68128;SHT30;54931;52.098;21.006;2024-03-02T04:27:53;5.59;84.90
68128;SHT30;54931;52.098;21.006;2024-03-02T04:30:21;5.59;84.97
68128;SHT30;54931;52.098;21.006;2024-03-02T04:32:49;5.60;84.90
68128;SHT30;54931;52.098;21.006;2024-03-02T04:35:16;5.60;84.91
68128;SHT30;54931;52.098;21.006;2024-03-02T04:37:46;5.59;85.03
68128;SHT30;54931;52.098;21.006;2024-03-02T04:40:14;5.60;84.91
68128;SHT30;54931;52.098;21.006;2024-03-02T04:42:42;5.59;84.97
68128;SHT30;54931;52.098;21.006;2024-03-02T04:45:10;5.59;84.91
68128;SHT30;54931;52.098;21.006;2024-03-02T04:47:38;5.59;84.92
68128;SHT30;54931;52.098;21.006;2024-03-02T04:50:05;5.58;84.78
68128;SHT30;54931;52.098;21.006;2024-03-02T04:52:34;5.57;85.02
68128;SHT30;54931;52.098;21.006;2024-03-02T04:55:02;5.57;85.06
68128;SHT30;54931;52.098;21.006;2024-03-02T04:57:44;5.57;84.89
68128;SHT30;54931;52.098;21.006;2024-03-02T05:00:13;5.57;84.96
68128;SHT30;54931;52.098;21.006;2024-03-02T05:02:41;5.59;84.92
68128;SHT30;54931;52.098;21.006;2024-03-02T05:05:09;5.59;84.85
68128;SHT30;54931;52.098;21.006;2024-03-02T05:07:37;5.58;84.87
68128;SHT30;54931;52.098;21.006;2024-03-02T05:10:05;5.58;84.98
68128;SHT30;54931;52.098;21.006;2024-03-02T05:12:34;5.58;85.01
68128;SHT30;54931;52.098;21.006;2024-03-02T05:15:11;5.59;84.92
68128;SHT30;54931;52.098;21.006;2024-03-02T05:17:42;5.58;85.07
68128;SHT30;54931;52.098;21.006;2024-03-02T05:20:10;5.59;85.06
68128;SHT30;54931;52.098;21.006;2024-03-02T05:22:38;5.60;84.98
68128;SHT30;54931;52.098;21.006;2024-03-02T05:25:07;5.60;84.95
68128;SHT30;54931;52.098;21.006;2024-03-02T05:27:37;5.61;84.98
68128;SHT30;54931;52.098;21.006;2024-03-02T05:30:05;5.61;84.87
68128;SHT30;54931;52.098;21.006;2024-03-02T05:32:34;5.62;84.90
68128;SHT30;54931;52.098;21.006;2024-03-02T05:35:02;5.63;84.94
68128;SHT30;54931;52.098;21.006;2024-03-02T05:37:32;5.65;84.91
68128;SHT30;54931;52.098;21.006;2024-03-02T05:40:00;5.65;84.92
68128;SHT30;54931;52.098;21.006;2024-03-02T05:42:28;5.64;84.96
68128;SHT30;54931;52.098;21.006;2024-03-02T05:44:56;5.66;84.91
68128;SHT30;54931;52.098;21.006;2024-03-02T05:47:24;5.65;84.94
68128;SHT30;54931;52.098;21.006;2024-03-02T05:49:52;5.66;84.94
68128;SHT30;54931;52.098;21.006;2024-03-02T05:52:20;5.66;84.97
68128;SHT30;54931;52.098;21.006;2024-03-02T05:54:48;5.68;84.89
68128;SHT30;54931;52.098;21.006;2024-03-02T05:57:17;5.68;84.85
68128;SHT30;54931;52.098;21.006;2024-03-02T05:59:59;5.70;84.97
68128;SHT30;54931;52.098;21.006;2024-03-02T06:02:27;5.72;84.90
68128;SHT30;54931;52.098;21.006;2024-03-02T06:04:55;5.73;84.88
68128;SHT30;54931;52.098;21.006;2024-03-02T06:07:23;5.74;84.82
68128;SHT30;54931;52.098;21.006;2024-03-02T06:09:51;5.76;84.79
68128;SHT30;54931;52.098;21.006;2024-03-02T06:12:19;5.79;84.80
68128;SHT30;54931;52.098;21.006;2024-03-02T06:14:47;5.81;84.74
68128;SHT30;54931;52.098;21.006;2024-03-02T06:17:15;5.84;84.74
68128;SHT30;54931;52.098;21.006;2024-03-02T06:19:43;5.86;84.68
68128;SHT30;54931;52.098;21.006;2024-03-02T06:22:11;5.89;84.73
68128;SHT30;54931;52.098;21.006;2024-03-02T06:24:38;5.92;84.64
68128;SHT30;54931;52.098;21.006;2024-03-02T06:27:06;5.94;84.65
68128;SHT30;54931;52.098;21.006;2024-03-02T06:29:34;6.00;84.53
68128;SHT30;54931;52.098;21.006;2024-03-02T06:32:02;6.02;84.47
68128;SHT30;54931;52.098;21.006;2024-03-02T06:34:30;6.07;84.40
68128;SHT30;54931;52.098;21.006;2024-03-02T06:36:58;6.11;84.30
68128;SHT30;54931;52.098;21.006;2024-03-02T06:39:25;6.14;84.22
68128;SHT30;54931;52.098;21.006;2024-03-02T06:41:53;6.17;84.14
68128;SHT30;54931;52.098;21.006;2024-03-02T06:44:21;6.21;84.00
68128;SHT30;54931;52.098;21.006;2024-03-02T06:46:48;6.26;83.94
68128;SHT30;54931;52.098;21.006;2024-03-02T06:49:17;6.30;83.82
68128;SHT30;54931;52.098;21.006;2024-03-02T06:51:45;6.33;83.73
68128;SHT30;54931;52.098;21.006;2024-03-02T06:54:13;6.36;83.62
68128;SHT30;54931;52.098;21.006;2024-03-02T06:56:41;6.40;83.53
68128;SHT30;54931;52.098;21.006;2024-03-02T06:59:09;6.41;83.48
68128;SHT30;54931;52.098;21.006;2024-03-02T07:01:38;6.44;83.39
68128;SHT30;54931;52.098;21.006;2024-03-02T07:04:05;6.46;83.32
68128;SHT30;54931;52.098;21.006;2024-03-02T07:06:33;6.49;83.29
68128;SHT30;54931;52.098;21.006;2024-03-02T07:09:01;6.51;83.18
68128;SHT30;54931;52.098;21.006;2024-03-02T07:11:29;6.54;83.14
68128;SHT30;54931;52.098;21.006;2024-03-02T07:13:57;6.57;83.11
68128;SHT30;54931;52.098;21.006;2024-03-02T07:16:25;6.60;83.04
68128;SHT30;54931;52.098;21.006;2024-03-02T07:18:57;6.63;82.90
68128;SHT30;54931;52.098;21.006;2024-03-02T07:21:26;6.65;82.91
68128;SHT30;54931;52.098;21.006;2024-03-02T07:23:54;6.69;82.84
68128;SHT30;54931;52.098;21.006;2024-03-02T07:26:22;6.72;82.80
68128;SHT30;54931;52.098;21.006;2024-03-02T07:28:50;6.76;82.70
68128;SHT30;54931;52.098;21.006;2024-03-02T07:31:19;6.77;82.49
68128;SHT30;54931;52.098;21.006;2024-03-02T07:33:47;6.78;82.36
68128;SHT30;54931;52.098;21.006;2024-03-02T07:36:15;6.82;82.36
68128;SHT30;54931;52.098;21.006;2024-03-02T07:38:43;6.86;82.33
68128;SHT30;54931;52.098;21.006;2024-03-02T07:41:11;6.91;82.24
68128;SHT30;54931;52.098;21.006;2024-03-02T07:43:40;6.95;82.11
68128;SHT30;54931;52.098;21.006;2024-03-02T07:46:08;6.99;81.85
68128;SHT30;54931;52.098;21.006;2024-03-02T07:48:36;7.03;81.81
68128;SHT30;54931;52.098;21.006;2024-03-02T07:51:05;7.07;81.64
68128;SHT30;54931;52.098;21.006;2024-03-02T07:53:34;7.10;81.41
68128;SHT30;54931;52.098;21.006;2024-03-02T07:56:01;7.15;81.42
68128;SHT30;54931;52.098;21.006;2024-03-02T07:58:30;7.21;81.35
68128;SHT30;54931;52.098;21.006;2024-03-02T08:00:58;7.27;81.23
68128;SHT30;54931;52.098;21.006;2024-03-02T08:03:28;7.32;80.95
68128;SHT30;54931;52.098;21.006;2024-03-02T08:05:56;7.34;80.58
68128;SHT30;54931;52.098;21.006;2024-03-02T08:08:24;7.37;80.40
68128;SHT30;54931;52.098;21.006;2024-03-02T08:10:53;7.43;80.45
68128;SHT30;54931;52.098;21.006;2024-03-02T08:13:21;7.48;80.37
68128;SHT30;54931;52.098;21.006;2024-03-02T08:15:49;7.50;80.12
68128;SHT30;54931;52.098;21.006;2024-03-02T08:18:17;7.52;79.94
68128;SHT30;54931;52.098;21.006;2024-03-02T08:20:45;7.54;79.87
68128;SHT30;54931;52.098;21.006;2024-03-02T08:23:13;7.57;79.87
68128;SHT30;54931;52.098;21.006;2024-03-02T08:25:41;7.62;79.92
68128;SHT30;54931;52.098;21.006;2024-03-02T08:28:10;7.66;79.79
68128;SHT30;54931;52.098;21.006;2024-03-02T08:30:38;7.67;79.55
68128;SHT30;54931;52.098;21.006;2024-03-02T08:33:06;7.70;79.62
68128;SHT30;54931;52.098;21.006;2024-03-02T08:35:34;7.70;79.50
68128;SHT30;54931;52.098;21.006;2024-03-02T08:38:03;7.72;79.33
68128;SHT30;54931;52.098;21.006;2024-03-02T08:40:33;7.70;79.32
68128;SHT30;54931;52.098;21.006;2024-03-02T08:43:01;7.71;79.16
68128;SHT30;54931;52.098;21.006;2024-03-02T08:45:31;7.77;79.38
68128;SHT30;54931;52.098;21.006;2024-03-02T08:47:59;7.76;79.07
68128;SHT30;54931;52.098;21.006;2024-03-02T08:50:28;7.73;78.82
68128;SHT30;54931;52.098;21.006;2024-03-02T08:52:57;7.75;78.92
68128;SHT30;54931;52.098;21.006;2024-03-02T08:55:25;7.77;78.94
68128;SHT30;54931;52.098;21.006;2024-03-02T08:57:54;7.76;78.89
68128;SHT30;54931;52.098;21.006;2024-03-02T09:00:23;7.81;78.96
68128;SHT30;54931;52.098;21.006;2024-03-02T09:02:52;7.83;78.81
68128;SHT30;54931;52.098;21.006;2024-03-02T09:05:20;7.85;78.81
68128;SHT30;54931;52.098;21.006;2024-03-02T09:07:48;7.87;78.63
68128;SHT30;54931;52.098;21.006;2024-03-02T09:10:16;7.90;78.64
68128;SHT30;54931;52.098;21.006;2024-03-02T09:12:44;7.93;78.50
68128;SHT30;54931;52.098;21.006;2024-03-02T09:15:11;7.96;78.46
68128;SHT30;54931;52.098;21.006;2024-03-02T09:17:39;8.02;78.40
68128;SHT30;54931;52.098;21.006;2024-03-02T09:20:08;8.04;78.20
68128;SHT30;54931;52.098;21.006;2024-03-02T09:22:36;8.05;78.00
68128;SHT30;54931;52.098;21.006;2024-03-02T09:25:05;8.03;78.04
68128;SHT30;54931;52.098;21.006;2024-03-02T09:27:36;8.04;78.08
68128;SHT30;54931;52.098;21.006;2024-03-02T09:30:07;8.05;78.08
68128;SHT30;54931;52.098;21.006;2024-03-02T09:32:37;8.07;78.09
68128;SHT30;54931;52.098;21.006;2024-03-02T09:35:05;8.12;78.14
68128;SHT30;54931;52.098;21.006;2024-03-02T09:37:35;8.19;78.17
68128;SHT30;54931;52.098;21.006;2024-03-02T09:40:03;8.26;77.78
68128;SHT30;54931;52.098;21.006;2024-03-02T09:42:33;8.32;77.78
68128;SHT30;54931;52.098;21.006;2024-03-02T09:45:02;8.35;77.09
68128;SHT30;54931;52.098;21.006;2024-03-02T09:47:31;8.40;77.26
68128;SHT30;54931;52.098;21.006;2024-03-02T09:49:59;8.49;77.14
68128;SHT30;54931;52.098;21.006;2024-03-02T09:52:28;8.54;76.79
68128;SHT30;54931;52.098;21.006;2024-03-02T09:54:56;8.58;76.61
68128;SHT30;54931;52.098;21.006;2024-03-02T09:57:24;8.61;76.43
68128;SHT30;54931;52.098;21.006;2024-03-02T09:59:52;8.66;76.41
68128;SHT30;54931;52.098;21.006;2024-03-02T10:02:21;8.69;76.20
68128;SHT30;54931;52.098;21.006;2024-03-02T10:04:49;8.71;75.98
68128;SHT30;54931;52.098;21.006;2024-03-02T10:07:18;8.72;75.88
68128;SHT30;54931;52.098;21.006;2024-03-02T10:09:48;8.70;75.74
68128;SHT30;54931;52.098;21.006;2024-03-02T10:12:17;8.66;75.76
68128;SHT30;54931;52.098;21.006;2024-03-02T10:14:45;8.66;75.84
68128;SHT30;54931;52.098;21.006;2024-03-02T10:17:17;8.66;75.79
68128;SHT30;54931;52.098;21.006;2024-03-02T10:19:46;8.73;75.73
68128;SHT30;54931;52.098;21.006;2024-03-02T10:22:15;8.80;75.53
68128;SHT30;54931;52.098;21.006;2024-03-02T10:24:44;8.91;75.45
68128;SHT30;54931;52.098;21.006;2024-03-02T10:27:17;9.01;75.11
68128;SHT30;54931;52.098;21.006;2024-03-02T10:29:50;9.18;75.11
68128;SHT30;54931;52.098;21.006;2024-03-02T10:32:19;9.32;74.41
68128;SHT30;54931;52.098;21.006;2024-03-02T10:34:50;9.45;74.28
68128;SHT30;54931;52.098;21.006;2024-03-02T10:37:19;9.54;73.66
68128;SHT30;54931;52.098;21.006;2024-03-02T10:39:49;9.62;73.17
68128;SHT30;54931;52.098;21.006;2024-03-02T10:42:19;9.71;73.07
68128;SHT30;54931;52.098;21.006;2024-03-02T10:44:49;9.77;72.78
68128;SHT30;54931;52.098;21.006;2024-03-02T10:47:18;9.87;72.42
68128;SHT30;54931;52.098;21.006;2024-03-02T10:49:50;9.98;72.88
68128;SHT30;54931;52.098;21.006;2024-03-02T10:52:21;10.11;72.64
68128;SHT30;54931;52.098;21.006;2024-03-02T10:54:50;10.22;72.14
68128;SHT30;54931;52.098;21.006;2024-03-02T10:57:19;10.29;71.98
68128;SHT30;54931;52.098;21.006;2024-03-02T10:59:55;10.30;71.45
68128;SHT30;54931;52.098;21.006;2024-03-02T11:02:28;10.31;71.29
68128;SHT30;54931;52.098;21.006;2024-03-02T11:05:01;10.30;71.22
68128;SHT30;54931;52.098;21.006;2024-03-02T11:07:35;10.32;71.24
68128;SHT30;54931;52.098;21.006;2024-03-02T11:10:06;10.34;71.21
68128;SHT30;54931;52.098;21.006;2024-03-02T11:12:44;10.33;70.78
68128;SHT30;54931;52.098;21.006;2024-03-02T11:15:26;10.34;70.81
68128;SHT30;54931;52.098;21.006;2024-03-02T11:17:55;10.39;70.85
68128;SHT30;54931;52.098;21.006;2024-03-02T11:20:25;10.43;70.62
68128;SHT30;54931;52.098;21.006;2024-03-02T11:22:55;10.50;70.95
68128;SHT30;54931;52.098;21.006;2024-03-02T11:25:27;10.53;70.51
68128;SHT30;54931;52.098;21.006;2024-03-02T11:33:01;10.75;71.07
68128;SHT30;54931;52.098;21.006;2024-03-02T11:35:36;10.96;70.31
68128;SHT30;54931;52.098;21.006;2024-03-02T11:38:18;11.15;69.62
68128;SHT30;54931;52.098;21.006;2024-03-02T11:40:46;11.33;69.38
68128;SHT30;54931;52.098;21.006;2024-03-02T11:43:14;11.47;68.75
68128;SHT30;54931;52.098;21.006;2024-03-02T11:45:43;11.57;68.32
68128;SHT30;54931;52.098;21.006;2024-03-02T11:48:14;11.67;68.43
68128;SHT30;54931;52.098;21.006;2024-03-02T11:50:47;11.74;67.30
68128;SHT30;54931;52.098;21.006;2024-03-02T11:53:19;11.63;66.84
68128;SHT30;54931;52.098;21.006;2024-03-02T11:55:48;11.64;66.98
68128;SHT30;54931;52.098;21.006;2024-03-02T11:58:18;11.71;67.35
68128;SHT30;54931;52.098;21.006;2024-03-02T12:00:52;11.87;67.61
68128;SHT30;54931;52.098;21.006;2024-03-02T12:03:22;11.98;66.85
68128;SHT30;54931;52.098;21.006;2024-03-02T12:05:55;11.95;66.34
68128;SHT30;54931;52.098;21.006;2024-03-02T12:08:23;12.04;67.13
68128;SHT30;54931;52.098;21.006;2024-03-02T12:11:01;12.22;67.09
68128;SHT30;54931;52.098;21.006;2024-03-02T12:13:30;12.19;65.47
68128;SHT30;54931;52.098;21.006;2024-03-02T12:15:58;12.18;66.14
68128;SHT30;54931;52.098;21.006;2024-03-02T12:18:27;12.17;65.83
68128;SHT30;54931;52.098;21.006;2024-03-02T12:20:55;12.24;66.30
68128;SHT30;54931;52.098;21.006;2024-03-02T12:23:26;12.28;65.62
68128;SHT30;54931;52.098;21.006;2024-03-02T12:25:54;12.30;65.80
68128;SHT30;54931;52.098;21.006;2024-03-02T12:28:23;12.26;65.48
68128;SHT30;54931;52.098;21.006;2024-03-02T12:30:52;12.19;65.59
68128;SHT30;54931;52.098;21.006;2024-03-02T12:33:20;12.06;65.58
68128;SHT30;54931;52.098;21.006;2024-03-02T12:35:48;11.90;65.99
68128;SHT30;54931;52.098;21.006;2024-03-02T12:38:17;11.92;66.47
68128;SHT30;54931;52.098;21.006;2024-03-02T12:40:47;11.94;66.43
68128;SHT30;54931;52.098;21.006;2024-03-02T12:43:16;11.91;66.45
68128;SHT30;54931;52.098;21.006;2024-03-02T12:45:44;11.80;66.33
68128;SHT30;54931;52.098;21.006;2024-03-02T12:48:12;11.71;66.75
68128;SHT30;54931;52.098;21.006;2024-03-02T12:50:42;11.74;66.83
68128;SHT30;54931;52.098;21.006;2024-03-02T12:53:13;11.67;66.81
68128;SHT30;54931;52.098;21.006;2024-03-02T12:55:43;11.68;67.01
68128;SHT30;54931;52.098;21.006;2024-03-02T12:58:18;11.69;66.91
68128;SHT30;54931;52.098;21.006;2024-03-02T13:00:50;11.65;67.04
68128;SHT30;54931;52.098;21.006;2024-03-02T13:03:35;11.72;67.52
68128;SHT30;54931;52.098;21.006;2024-03-02T13:06:05;11.81;67.34
68128;SHT30;54931;52.098;21.006;2024-03-02T13:08:34;11.87;67.03
68128;SHT30;54931;52.098;21.006;2024-03-02T13:11:03;11.88;67.01
68128;SHT30;54931;52.098;21.006;2024-03-02T13:13:33;11.89;66.87
68128;SHT30;54931;52.098;21.006;2024-03-02T13:16:01;11.85;66.97
68128;SHT30;54931;52.098;21.006;2024-03-02T13:18:30;11.89;67.11
68128;SHT30;54931;52.098;21.006;2024-03-02T13:20:58;11.88;66.76
68128;SHT30;54931;52.098;21.006;2024-03-02T13:23:27;11.74;66.50
68128;SHT30;54931;52.098;21.006;2024-03-02T13:25:58;11.66;66.98
68128;SHT30;54931;52.098;21.006;2024-03-02T13:28:25;11.63;67.21
68128;SHT30;54931;52.098;21.006;2024-03-02T13:30:54;11.59;67.17
68128;SHT30;54931;52.098;21.006;2024-03-02T13:33:23;11.45;67.32
68128;SHT30;54931;52.098;21.006;2024-03-02T13:35:51;11.44;67.75
68128;SHT30;54931;52.098;21.006;2024-03-02T13:38:19;11.41;67.76
68128;SHT30;54931;52.098;21.006;2024-03-02T13:40:48;11.35;67.63
68128;SHT30;54931;52.098;21.006;2024-03-02T13:43:20;11.24;67.91
68128;SHT30;54931;52.098;21.006;2024-03-02T13:45:50;11.14;68.16
68128;SHT30;54931;52.098;21.006;2024-03-02T13:48:19;11.08;68.48
68128;SHT30;54931;52.098;21.006;2024-03-02T13:50:48;11.06;68.61
68128;SHT30;54931;52.098;21.006;2024-03-02T13:53:16;11.04;68.61
68128;SHT30;54931;52.098;21.006;2024-03-02T13:55:45;10.98;68.89
68128;SHT30;54931;52.098;21.006;2024-03-02T13:58:13;10.90;68.89
68128;SHT30;54931;52.098;21.006;2024-03-02T14:00:42;10.83;69.15
68128;SHT30;54931;52.098;21.006;2024-03-02T14:03:12;10.77;69.41
68128;SHT30;54931;52.098;21.006;2024-03-02T14:05:41;10.74;69.45
68128;SHT30;54931;52.098;21.006;2024-03-02T14:08:10;10.69;69.69
68128;SHT30;54931;52.098;21.006;2024-03-02T14:10:38;10.59;69.87
68128;SHT30;54931;52.098;21.006;2024-03-02T14:13:07;10.50;69.94
68128;SHT30;54931;52.098;21.006;2024-03-02T14:15:35;10.39;70.10
68128;SHT30;54931;52.098;21.006;2024-03-02T14:18:06;10.31;70.45
68128;SHT30;54931;52.098;21.006;2024-03-02T14:20:38;10.22;70.73
68128;SHT30;54931;52.098;21.006;2024-03-02T14:23:06;10.19;70.93
68128;SHT30;54931;52.098;21.006;2024-03-02T14:25:34;10.15;71.06
68128;SHT30;54931;52.098;21.006;2024-03-02T14:28:03;10.08;71.29
68128;SHT30;54931;52.098;21.006;2024-03-02T14:30:31;10.03;71.47
68128;SHT30;54931;52.098;21.006;2024-03-02T14:33:01;10.00;71.62
68128;SHT30;54931;52.098;21.006;2024-03-02T14:35:29;10.00;71.63
68128;SHT30;54931;52.098;21.006;2024-03-02T14:37:57;9.94;71.75
68128;SHT30;54931;52.098;21.006;2024-03-02T14:40:24;9.89;71.85
68128;SHT30;54931;52.098;21.006;2024-03-02T14:42:54;9.87;71.97
68128;SHT30;54931;52.098;21.006;2024-03-02T14:45:22;9.85;72.01
68128;SHT30;54931;52.098;21.006;2024-03-02T14:47:51;9.79;72.09
68128;SHT30;54931;52.098;21.006;2024-03-02T14:50:20;9.76;72.13
68128;SHT30;54931;52.098;21.006;2024-03-02T14:52:49;9.74;72.22
68128;SHT30;54931;52.098;21.006;2024-03-02T14:55:17;9.66;72.30
68128;SHT30;54931;52.098;21.006;2024-03-02T14:57:46;9.61;72.38
68128;SHT30;54931;52.098;21.006;2024-03-02T15:00:14;9.59;72.54
68128;SHT30;54931;52.098;21.006;2024-03-02T15:02:42;9.55;72.62
68128;SHT30;54931;52.098;21.006;2024-03-02T15:05:11;9.47;72.82
68128;SHT30;54931;52.098;21.006;2024-03-02T15:07:39;9.45;72.93
68128;SHT30;54931;52.098;21.006;2024-03-02T15:10:07;9.43;73.09
68128;SHT30;54931;52.098;21.006;2024-03-02T15:12:36;9.39;73.21
68128;SHT30;54931;52.098;21.006;2024-03-02T15:15:05;9.38;73.32
68128;SHT30;54931;52.098;21.006;2024-03-02T15:17:34;9.37;73.39
68128;SHT30;54931;52.098;21.006;2024-03-02T15:20:02;9.37;73.40
68128;SHT30;54931;52.098;21.006;2024-03-02T15:22:31;9.32;73.49
68128;SHT30;54931;52.098;21.006;2024-03-02T15:24:59;9.32;73.56
68128;SHT30;54931;52.098;21.006;2024-03-02T15:27:28;9.30;73.60
68128;SHT30;54931;52.098;21.006;2024-03-02T15:29:56;9.28;73.64
68128;SHT30;54931;52.098;21.006;2024-03-02T15:32:25;9.29;73.69
68128;SHT30;54931;52.098;21.006;2024-03-02T15:34:53;9.27;73.82
68128;SHT30;54931;52.098;21.006;2024-03-02T15:37:21;9.26;73.84
68128;SHT30;54931;52.098;21.006;2024-03-02T15:39:50;9.25;73.88
68128;SHT30;54931;52.098;21.006;2024-03-02T15:42:18;9.23;73.93
68128;SHT30;54931;52.098;21.006;2024-03-02T15:44:46;9.22;74.00
68128;SHT30;54931;52.098;21.006;2024-03-02T15:47:14;9.19;74.12
68128;SHT30;54931;52.098;21.006;2024-03-02T15:49:42;9.15;74.23